Time;durP1;ratioP1;P1;durP2;ratioP2;P2;SDS_P1;SDS_P2;PMS_P1;PMS_P2;Temp;Humidity;BMP_temperature;BMP_pressure;BME280_temperature;BME280_humidity;BME280_pressure;Samples;Min_cycle;Max_cycle;Signal;HPM_P1;HPM_P2
2023/06/29 00:01:30;;;;;;;21.67;18.05;;;;;;;18.99;100.00;101626.75;4974558;28;20354;-81
2023/06/29 00:03:56;;;;;;;20.73;17.15;;;;;;;19.02;100.00;101623.03;4974511;28;20054;-79
2023/06/29 00:06:21;;;;;;;22.98;18.17;;;;;;;19.00;100.00;101620.53;4974684;28;20026;-79
2023/06/29 00:08:48;;;;;;;21.05;18.13;;;;;;;18.99;100.00;101623.28;4974950;28;20039;-80
2023/06/29 00:11:13;;;;;;;24.40;19.42;;;;;;;18.87;100.00;101604.22;4974739;28;20508;-81
2023/06/29 00:13:38;;;;;;;23.95;18.15;;;;;;;18.98;100.00;101619.03;4974462;28;20031;-79
2023/06/29 00:16:04;;;;;;;22.52;19.00;;;;;;;18.95;100.00;101611.41;4974551;28;20030;-85
2023/06/29 00:18:29;;;;;;;27.52;19.98;;;;;;;18.95;100.00;101612.25;4974306;28;20059;-86
2023/06/29 00:20:56;;;;;;;23.75;19.70;;;;;;;18.81;100.00;101589.06;4974639;28;20069;-82
2023/06/29 00:23:22;;;;;;;24.73;20.40;;;;;;;18.94;100.00;101602.72;4956896;28;20477;-85
2023/06/29 00:25:47;;;;;;;27.40;21.15;;;;;;;18.92;100.00;101608.09;4957010;28;20043;-86
2023/06/29 00:28:15;;;;;;;25.73;20.85;;;;;;;18.87;100.00;101588.50;4974311;28;20073;-82
2023/06/29 00:30:41;;;;;;;25.98;19.75;;;;;;;18.91;100.00;101600.38;4956744;28;20022;-82
2023/06/29 00:33:06;;;;;;;26.88;20.25;;;;;;;18.89;100.00;101597.91;4956830;28;20038;-85
2023/06/29 00:35:32;;;;;;;24.17;19.20;;;;;;;18.87;100.00;101601.59;4973986;28;20062;-82
2023/06/29 00:37:57;;;;;;;24.52;19.88;;;;;;;18.84;100.00;101594.84;4974339;28;20039;-82
2023/06/29 00:40:23;;;;;;;27.55;21.88;;;;;;;18.87;100.00;101594.56;4974110;28;20114;-86
2023/06/29 00:42:48;;;;;;;26.13;20.58;;;;;;;18.73;100.00;101570.56;4974206;28;20035;-83
2023/06/29 00:45:15;;;;;;;28.30;21.73;;;;;;;18.54;100.00;101545.09;4975265;28;20026;-85
2023/06/29 00:47:41;;;;;;;25.55;21.13;;;;;;;18.78;100.00;101589.28;4973833;28;20460;-82
2023/06/29 00:50:07;;;;;;;24.83;19.38;;;;;;;18.71;100.00;101575.94;4974205;28;20026;-82
2023/06/29 00:52:33;;;;;;;27.90;20.58;;;;;;;18.74;100.00;101580.06;4974280;28;20030;-85
2023/06/29 00:54:58;;;;;;;25.60;19.55;;;;;;;18.62;100.00;101560.97;4956732;28;20061;-87
2023/06/29 00:57:24;;;;;;;26.27;20.27;;;;;;;18.78;100.00;101590.16;4973946;28;20047;-81
2023/06/29 00:59:50;;;;;;;23.58;19.58;;;;;;;18.59;100.00;101554.22;4973931;28;20523;-85
2023/06/29 01:02:16;;;;;;;22.73;19.55;;;;;;;18.61;100.00;101551.47;4973671;28;20066;-85
2023/06/29 01:04:45;;;;;;;24.17;19.40;;;;;;;18.77;100.00;101571.94;4973868;28;20373;-82
2023/06/29 01:07:27;;;;;;;26.35;20.15;;;;;;;18.78;100.00;101574.47;4974069;28;20030;-82
2023/06/29 01:09:53;;;;;;;;;;;;;;;18.84;100.00;101567.84;4974570;28;20027;-82
2023/06/29 01:12:20;;;;;;;25.58;20.98;;;;;;;18.61;100.00;101541.84;4974557;28;19910;-80
2023/06/29 01:14:48;;;;;;;25.83;21.10;;;;;;;18.63;100.00;101546.94;4973636;28;20027;-79
2023/06/29 01:17:15;;;;;;;26.40;21.27;;;;;;;18.60;100.00;101547.22;4973653;28;20391;-79
2023/06/29 01:19:45;;;;;;;27.17;22.15;;;;;;;18.72;100.00;101569.72;4973752;28;20046;-79
2023/06/29 01:22:19;;;;;;;26.58;21.67;;;;;;;18.76;100.00;101575.53;4973921;28;20023;-80
2023/06/29 01:24:45;;;;;;;27.15;22.67;;;;;;;18.77;100.00;101569.31;4973604;28;20034;-80
2023/06/29 01:27:14;;;;;;;28.25;22.63;;;;;;;18.79;100.00;101567.44;4956232;28;20038;-80
2023/06/29 01:29:40;;;;;;;28.17;22.23;;;;;;;18.79;100.00;101563.03;4973493;28;20019;-80
2023/06/29 01:32:07;;;;;;;28.58;22.50;;;;;;;18.76;100.00;101562.44;4973473;28;20443;-79
2023/06/29 01:34:34;;;;;;;29.55;22.52;;;;;;;18.68;100.00;101547.44;4973667;28;20089;-79
2023/06/29 01:37:03;;;;;;;25.17;22.20;;;;;;;18.62;100.00;101538.25;4973740;28;20464;-80
2023/06/29 01:39:57;;;;;;;27.10;22.33;;;;;;;18.52;100.00;101513.84;4973604;28;20049;-80
2023/06/29 01:42:24;;;;;;;26.25;22.05;;;;;;;18.75;100.00;101552.94;4967990;28;20054;-80
2023/06/29 01:44:50;;;;;;;26.20;21.55;;;;;;;18.79;100.00;101560.41;4973388;28;20375;-79
2023/06/29 01:47:17;;;;;;;28.20;22.80;;;;;;;18.78;100.00;101553.53;4973465;28;20027;-79
2023/06/29 01:49:43;;;;;;;28.15;23.48;;;;;;;18.75;100.00;101551.16;4973266;28;20053;-80
2023/06/29 01:52:09;;;;;;;29.17;22.73;;;;;;;18.76;100.00;101550.19;4973531;28;20023;-80
2023/06/29 01:54:34;;;;;;;28.30;23.10;;;;;;;18.75;100.00;101553.75;4975084;28;20441;-80
2023/06/29 01:57:00;;;;;;;27.23;22.30;;;;;;;18.74;100.00;101553.91;4976718;28;20078;-79
2023/06/29 01:59:26;;;;;;;28.95;23.25;;;;;;;18.40;100.00;101496.59;4976847;28;20038;-79
2023/06/29 02:01:52;;;;;;;27.08;22.63;;;;;;;18.67;100.00;101529.22;4976767;28;20038;-80
2023/06/29 02:04:17;;;;;;;27.25;22.48;;;;;;;18.77;100.00;101545.78;4977134;28;20034;-81
2023/06/29 02:06:42;;;;;;;28.20;23.08;;;;;;;18.76;100.00;101547.56;4976925;28;20054;-80
2023/06/29 02:09:08;;;;;;;30.38;22.90;;;;;;;18.58;100.00;101513.34;4976930;28;20035;-80
2023/06/29 02:11:33;;;;;;;28.85;22.25;;;;;;;18.79;100.00;101544.72;4975450;28;20251;-79
2023/06/29 02:13:58;;;;;;;28.55;22.83;;;;;;;18.77;100.00;101540.53;4976956;28;20039;-80
2023/06/29 02:16:24;;;;;;;27.40;22.17;;;;;;;18.79;100.00;101542.09;4976379;28;20069;-80
2023/06/29 02:18:49;;;;;;;27.92;22.85;;;;;;;18.77;100.00;101543.97;4976774;28;20472;-80
2023/06/29 02:21:14;;;;;;;29.17;23.63;;;;;;;18.41;100.00;101487.81;4976759;28;20558;-80
2023/06/29 02:23:40;;;;;;;26.88;22.80;;;;;;;18.75;100.00;101542.47;4976512;28;20432;-81
2023/06/29 02:26:06;;;;;;;27.50;22.73;;;;;;;18.73;100.00;101537.38;4976510;28;20143;-81
2023/06/29 02:28:31;;;;;;;27.85;22.80;;;;;;;18.60;100.00;101518.44;4976471;28;20054;-79
2023/06/29 02:30:56;;;;;;;26.45;22.27;;;;;;;18.54;100.00;101504.09;4976267;28;20031;-81
2023/06/29 02:33:22;;;;;;;27.13;22.05;;;;;;;18.48;100.00;101490.69;4976316;28;20019;-81
2023/06/29 02:35:47;;;;;;;27.63;22.98;;;;;;;18.63;100.00;101516.38;4976274;28;20026;-80
2023/06/29 02:38:13;;;;;;;30.27;23.48;;;;;;;18.70;100.00;101521.13;4976430;28;20034;-81
2023/06/29 02:40:38;;;;;;;27.02;22.15;;;;;;;18.67;100.00;101521.38;4976245;28;20027;-79
2023/06/29 02:43:04;;;;;;;30.52;24.08;;;;;;;18.69;100.00;101522.09;4976197;28;20081;-80
2023/06/29 02:45:29;;;;;;;30.75;23.80;;;;;;;18.59;100.00;101512.38;4976168;28;20031;-80
2023/06/29 02:47:54;;;;;;;28.15;23.23;;;;;;;18.65;100.00;101512.81;4975877;28;20038;-80
2023/06/29 02:50:20;;;;;;;28.42;23.38;;;;;;;18.65;100.00;101516.28;4976132;28;20085;-80
2023/06/29 02:52:45;;;;;;;28.05;23.33;;;;;;;18.56;100.00;101498.72;4976167;28;20027;-80
2023/06/29 02:55:10;;;;;;;29.70;24.33;;;;;;;18.63;100.00;101515.53;4975918;28;20027;-81
2023/06/29 02:57:36;;;;;;;29.80;24.20;;;;;;;18.60;100.00;101511.41;4975755;28;20050;-80
2023/06/29 03:00:03;;;;;;;29.50;24.05;;;;;;;18.32;100.00;101459.81;4976069;28;20054;-80
2023/06/29 03:02:28;;;;;;;29.20;24.05;;;;;;;18.40;100.00;101469.63;4975674;28;20054;-82
2023/06/29 03:04:54;;;;;;;30.63;24.90;;;;;;;18.62;100.00;101506.06;4974719;28;20022;-80
2023/06/29 03:07:19;;;;;;;30.42;24.63;;;;;;;18.66;100.00;101504.03;4975800;28;20029;-81
2023/06/29 03:09:44;;;;;;;26.70;23.08;;;;;;;18.67;100.00;101500.44;4975663;28;20090;-80
2023/06/29 03:12:10;;;;;;;29.05;22.70;;;;;;;18.57;100.00;101479.44;4975961;28;20038;-81
2023/06/29 03:14:35;;;;;;;28.52;23.50;;;;;;;18.68;100.00;101505.56;4975644;28;20023;-80
2023/06/29 03:17:00;;;;;;;26.98;23.05;;;;;;;18.69;100.00;101504.59;4975590;28;20038;-81
2023/06/29 03:19:26;;;;;;;27.23;23.05;;;;;;;18.41;100.00;101456.41;4975351;28;20018;-80
2023/06/29 03:21:51;;;;;;;29.45;23.52;;;;;;;18.56;100.00;101481.22;4975345;28;20134;-82
2023/06/29 03:24:16;;;;;;;32.45;24.17;;;;;;;18.69;100.00;101499.38;4975543;28;20031;-80
2023/06/29 03:26:42;;;;;;;27.88;23.30;;;;;;;18.68;100.00;101499.47;4975455;28;20058;-81
2023/06/29 03:29:07;;;;;;;28.67;23.55;;;;;;;18.68;100.00;101499.47;4975515;28;20034;-80
2023/06/29 03:31:32;;;;;;;29.85;23.80;;;;;;;18.66;100.00;101498.78;4958028;28;20042;-80
2023/06/29 03:33:59;;;;;;;29.05;22.92;;;;;;;18.64;100.00;101491.03;4957552;28;20035;-80
2023/06/29 03:36:24;;;;;;;31.02;23.23;;;;;;;18.65;100.00;101494.50;4975347;28;20041;-81
2023/06/29 03:38:49;;;;;;;28.60;23.48;;;;;;;18.65;100.00;101497.97;4975173;28;20023;-81
2023/06/29 03:41:15;;;;;;;30.90;22.77;;;;;;;18.65;100.00;101484.06;4975116;28;20034;-81
2023/06/29 03:43:40;;;;;;;30.30;23.33;;;;;;;18.65;100.00;101491.91;4975266;28;20023;-87
2023/06/29 03:46:05;;;;;;;28.38;22.63;;;;;;;18.66;100.00;101488.31;4975226;28;20464;-86
2023/06/29 03:48:31;;;;;;;29.15;22.85;;;;;;;18.63;100.00;101492.84;4974730;28;20023;-86
2023/06/29 03:50:57;;;;;;;27.08;22.05;;;;;;;18.62;100.00;101485.94;4975095;28;20472;-87
2023/06/29 03:53:22;;;;;;;28.77;22.52;;;;;;;18.65;100.00;101490.09;4974899;28;20110;-82
2023/06/29 03:55:48;;;;;;;30.63;22.77;;;;;;;18.66;100.00;101491.75;4975036;28;20035;-84
2023/06/29 03:58:14;;;;;;;28.90;22.25;;;;;;;18.69;100.00;101483.66;4974840;28;20047;-87
2023/06/29 04:00:39;;;;;;;29.60;23.38;;;;;;;18.70;100.00;101481.88;4974812;28;20026;-83
2023/06/29 04:03:05;;;;;;;28.95;22.67;;;;;;;18.73;100.00;101485.03;4974545;28;20491;-86
2023/06/29 04:05:30;;;;;;;28.10;21.45;;;;;;;18.80;100.00;101480.13;4974647;28;20110;-84
2023/06/29 04:07:56;;;;;;;28.38;22.15;;;;;;;18.66;100.00;101454.31;4974827;28;20039;-83
2023/06/29 04:10:21;;;;;;;30.33;22.55;;;;;;;18.70;100.00;101461.78;4974812;28;20031;-85
2023/06/29 04:12:46;;;;;;;29.42;22.52;;;;;;;18.72;100.00;101456.41;4957410;28;20498;-87
2023/06/29 04:15:12;;;;;;;33.95;23.63;;;;;;;18.77;100.00;101467.28;4974596;28;20062;-81
2023/06/29 04:17:37;;;;;;;30.50;22.55;;;;;;;18.76;100.00;101461.22;4973829;28;20109;-82
2023/06/29 04:20:03;;;;;;;27.60;23.38;;;;;;;18.43;100.00;101396.97;4974265;28;20023;-80
2023/06/29 04:22:28;;;;;;;28.63;23.40;;;;;;;18.83;100.00;101459.72;4974258;28;20034;-80
2023/06/29 04:24:54;;;;;;;29.60;22.55;;;;;;;18.91;100.00;101467.75;4974422;28;20042;-81
2023/06/29 04:27:19;;;;;;;28.70;23.73;;;;;;;18.89;100.00;101461.00;4974336;28;20054;-80
2023/06/29 04:29:44;;;;;;;32.38;23.70;;;;;;;18.96;100.00;101467.31;4974417;28;20058;-80
2023/06/29 04:32:10;;;;;;;30.77;22.83;;;;;;;18.97;100.00;101466.34;4974356;28;20063;-80
2023/06/29 04:34:35;;;;;;;31.50;24.15;;;;;;;18.90;100.00;101452.19;4973905;28;20416;-80
2023/06/29 04:37:04;;;;;;;29.92;23.33;;;;;;;18.98;100.00;101462.81;4973983;28;20110;-80
2023/06/29 04:39:29;;;;;;;32.72;23.50;;;;;;;18.99;100.00;101461.84;4974111;28;20043;-80
2023/06/29 04:42:00;;;;;;;27.80;22.52;;;;;;;19.02;100.00;101464.16;4956785;28;20054;-79
2023/06/29 04:44:31;;;;;;;31.23;23.58;;;;;;;18.71;100.00;101415.50;4974123;28;20026;-78
2023/06/29 04:46:59;;;;;;;31.00;23.63;;;;;;;19.02;100.00;101461.56;4956025;28;20046;-82
2023/06/29 04:49:31;;;;;;;31.08;23.30;;;;;;;18.71;100.00;101399.81;4973742;28;20033;-80
2023/06/29 04:52:00;;;;;;;28.33;21.80;;;;;;;18.84;100.00;101413.44;4974005;28;20045;-79
2023/06/29 04:54:26;;;;;;;30.33;23.50;;;;;;;19.01;100.00;101446.81;4973880;28;20499;-81
2023/06/29 04:56:52;;;;;;;33.65;23.00;;;;;;;19.13;100.00;101453.56;4973751;28;20041;-81
2023/06/29 04:59:17;;;;;;;31.35;23.55;;;;;;;19.15;100.00;101459.50;4956531;28;20043;-81
2023/06/29 05:01:43;;;;;;;30.75;22.65;;;;;;;19.18;100.00;101459.25;4973933;28;20034;-81
2023/06/29 05:04:08;;;;;;;30.55;23.50;;;;;;;19.08;100.00;101424.38;4973787;28;20026;-84
2023/06/29 05:06:33;;;;;;;31.15;23.77;;;;;;;19.28;100.00;101453.19;4973700;28;20557;-79
2023/06/29 05:08:59;;;;;;;29.60;22.88;;;;;;;19.30;100.00;101456.47;4973813;28;20074;-82
2023/06/29 05:11:24;;;;;;;33.22;24.00;;;;;;;19.34;100.00;101457.84;4973824;28;20031;-81
2023/06/29 05:13:49;;;;;;;34.30;24.05;;;;;;;19.34;100.00;101453.44;4974069;28;20157;-80
2023/06/29 05:16:15;;;;;;;31.42;23.45;;;;;;;19.39;100.00;101460.91;4973763;28;20503;-79
2023/06/29 05:18:40;;;;;;;32.55;22.75;;;;;;;19.21;100.00;101421.47;4973855;28;20107;-80
2023/06/29 05:21:06;;;;;;;31.70;23.92;;;;;;;19.19;100.00;101413.75;4973365;28;20037;-83
2023/06/29 05:23:31;;;;;;;30.90;23.65;;;;;;;19.17;100.00;101401.75;4973679;28;20029;-84
2023/06/29 05:25:56;;;;;;;38.55;24.13;;;;;;;19.56;100.00;101454.97;4973740;28;20059;-81
2023/06/29 05:28:22;;;;;;;31.90;24.30;;;;;;;19.60;100.00;101453.72;4973536;28;20022;-80
2023/06/29 05:30:47;;;;;;;33.13;25.27;;;;;;;19.54;100.00;101438.53;4960010;28;20038;-81
2023/06/29 05:33:13;;;;;;;31.55;24.20;;;;;;;19.49;100.00;101436.34;4977547;28;20027;-80
2023/06/29 05:35:38;;;;;;;32.13;24.10;;;;;;;19.27;100.00;101406.97;4977236;28;20559;-81
2023/06/29 05:38:03;;;;;;;31.10;24.42;;;;;;;19.40;100.00;101425.88;4977578;28;20034;-78
2023/06/29 05:40:29;;;;;;;33.10;24.92;;;;;;;19.44;100.00;101430.69;4977544;28;20023;-78
2023/06/29 05:42:54;;;;;;;34.92;25.83;;;;;;;19.52;100.00;101442.25;4977003;28;20023;-80
2023/06/29 05:45:20;;;;;;;30.10;24.15;;;;;;;19.54;100.00;101441.16;4977357;28;20031;-81
2023/06/29 05:47:45;;;;;;;31.05;24.13;;;;;;;19.53;100.00;101438.69;5019161;23;20062;-78
2023/06/29 05:50:11;;;;;;;32.90;24.95;;;;;;;19.45;100.00;101411.38;4940157;29;20105;-82
2023/06/29 05:52:37;;;;;;;32.15;23.88;;;;;;;19.66;100.00;101447.09;4940369;29;20073;-80
2023/06/29 05:55:03;;;;;;;33.03;25.13;;;;;;;19.38;100.00;101412.94;4957587;29;20038;-80
2023/06/29 05:57:29;;;;;;;32.72;24.33;;;;;;;19.35;100.00;101404.50;4957521;29;20419;-81
2023/06/29 05:59:55;;;;;;;33.33;24.33;;;;;;;19.63;100.00;101450.00;4957458;29;20063;-80
2023/06/29 06:02:20;;;;;;;30.52;24.90;;;;;;;19.51;100.00;101430.13;4957548;29;20492;-80
2023/06/29 06:04:46;;;;;;;28.85;24.17;;;;;;;19.54;100.00;101432.47;4957566;29;20027;-82
2023/06/29 06:07:14;;;;;;;33.58;23.70;;;;;;;19.60;100.00;101411.81;4957429;29;20523;-80
2023/06/29 06:09:40;;;;;;;33.08;23.23;;;;;;;19.86;100.00;101442.63;4957506;29;20069;-80
2023/06/29 06:12:06;;;;;;;31.55;23.15;;;;;;;19.71;100.00;101401.16;4957512;29;20492;-80
2023/06/29 06:14:31;;;;;;;31.30;23.98;;;;;;;19.79;100.00;101413.56;4957453;29;20042;-81
2023/06/29 06:16:56;;;;;;;32.15;23.10;;;;;;;20.07;99.47;101445.09;4957263;29;20027;-80
2023/06/29 06:19:22;;;;;;;33.30;23.77;;;;;;;20.09;99.53;101451.81;4957259;29;20114;-80
2023/06/29 06:21:47;;;;;;;30.08;23.08;;;;;;;20.14;99.17;101446.97;4957006;29;20023;-80
2023/06/29 06:24:12;;;;;;;30.63;23.92;;;;;;;20.20;98.15;101448.19;4957102;29;20035;-81
2023/06/29 06:26:38;;;;;;;29.92;22.55;;;;;;;20.20;97.54;101448.19;4957399;29;20027;-80
2023/06/29 06:29:03;;;;;;;26.48;21.65;;;;;;;20.26;96.94;101450.25;4957194;29;20034;-82
2023/06/29 06:31:28;;;;;;;27.58;21.40;;;;;;;20.16;96.40;101426.69;4955958;29;20031;-78
2023/06/29 06:33:57;;;;;;;28.73;21.40;;;;;;;20.38;96.24;101446.47;4957294;29;20031;-80
2023/06/29 06:36:24;;;;;;;28.88;21.25;;;;;;;20.18;95.41;101402.94;4956723;29;20027;-79
2023/06/29 06:38:50;;;;;;;26.30;19.63;;;;;;;20.26;94.70;101411.75;4956627;29;20114;-80
2023/06/29 06:41:16;;;;;;;27.35;20.42;;;;;;;20.34;94.92;101419.69;4939201;29;20029;-80
2023/06/29 06:43:41;;;;;;;25.15;19.60;;;;;;;20.39;94.56;101405.31;4956904;29;20039;-77
2023/06/29 06:46:06;;;;;;;24.95;19.00;;;;;;;20.72;92.27;101446.72;4956453;29;20023;-79
2023/06/29 06:48:32;;;;;;;23.90;19.13;;;;;;;20.84;91.52;101455.22;4956715;29;20457;-75
2023/06/29 06:50:57;;;;;;;25.50;17.90;;;;;;;20.98;91.26;101456.53;4956528;28;20115;-79
2023/06/29 06:53:22;;;;;;;26.02;17.67;;;;;;;21.14;89.24;101451.44;4956545;29;20134;-80
2023/06/29 06:55:48;;;;;;;31.60;18.02;;;;;;;21.36;89.33;101447.53;4956444;29;20110;-79
2023/06/29 06:58:13;;;;;;;25.20;18.25;;;;;;;21.43;87.37;101449.41;4956855;29;20110;-79
2023/06/29 07:00:38;;;;;;;24.08;17.35;;;;;;;21.60;87.86;101450.34;4956587;29;20119;-79
2023/06/29 07:03:04;;;;;;;24.80;17.75;;;;;;;21.81;86.32;101452.63;4956585;29;20461;-80
2023/06/29 07:05:29;;;;;;;24.55;17.67;;;;;;;22.14;85.14;101452.88;4956437;29;20038;-79
2023/06/29 07:07:55;;;;;;;21.98;17.83;;;;;;;22.35;82.77;101445.41;4956024;28;20059;-79
2023/06/29 07:10:20;;;;;;;21.75;16.90;;;;;;;22.60;81.13;101433.94;4956276;29;20106;-80
2023/06/29 07:12:46;;;;;;;24.42;17.33;;;;;;;22.78;78.85;101430.38;4956410;29;20054;-78
2023/06/29 07:15:12;;;;;;;23.52;17.42;;;;;;;23.02;77.36;101446.28;4956386;29;20032;-80
2023/06/29 07:17:37;;;;;;;24.55;17.05;;;;;;;23.07;76.25;101432.59;4956427;29;20491;-79
2023/06/29 07:20:04;;;;;;;22.98;16.88;;;;;;;23.36;74.81;101416.31;4956183;29;20389;-78
2023/06/29 07:22:29;;;;;;;21.95;17.20;;;;;;;24.21;72.16;101430.66;4956053;29;20028;-78
2023/06/29 07:24:57;;;;;;;20.65;16.25;;;;;;;25.12;68.78;101445.03;4956116;29;20034;-80
2023/06/29 07:27:22;;;;;;;21.25;16.50;;;;;;;25.79;64.92;101444.31;4956135;29;20031;-81
2023/06/29 07:29:47;;;;;;;22.17;17.05;;;;;;;25.83;62.92;101445.59;4956254;29;20447;-80
2023/06/29 07:32:13;;;;;;;19.45;15.43;;;;;;;25.67;64.05;101433.34;4956532;29;20137;-79
2023/06/29 07:34:38;;;;;;;22.33;16.45;;;;;;;25.92;62.59;101447.97;4955838;29;20031;-80
2023/06/29 07:37:05;;;;;;;21.58;17.23;;;;;;;25.91;61.42;101411.94;4955719;28;20093;-81
2023/06/29 07:39:30;;;;;;;20.20;16.25;;;;;;;26.34;60.66;101437.72;4955805;29;20024;-81
2023/06/29 07:41:56;;;;;;;20.52;17.15;;;;;;;26.71;60.78;101440.22;4955567;29;20138;-80
2023/06/29 07:44:21;;;;;;;19.83;15.90;;;;;;;26.74;57.29;101391.31;4955728;29;20027;-81
2023/06/29 07:46:46;;;;;;;21.10;16.35;;;;;;;26.64;58.05;101425.25;4955841;29;20043;-81
2023/06/29 07:49:12;;;;;;;19.55;16.27;;;;;;;26.22;58.44;101422.31;4937792;29;20058;-79
2023/06/29 07:51:37;;;;;;;24.10;17.40;;;;;;;26.00;59.77;101418.78;4954558;28;20074;-78
2023/06/29 07:54:04;;;;;;;21.98;17.55;;;;;;;25.80;59.70;101425.63;4955482;29;20031;-78
2023/06/29 07:56:30;;;;;;;22.55;18.23;;;;;;;25.70;60.81;101435.66;4955145;29;20031;-78
2023/06/29 07:58:55;;;;;;;21.58;16.73;;;;;;;25.50;61.04;101408.03;4955013;29;20038;-80
2023/06/29 08:01:20;;;;;;;24.75;17.63;;;;;;;25.67;61.42;101428.88;4955424;29;20028;-81
2023/06/29 08:03:46;;;;;;;24.65;17.52;;;;;;;25.77;60.61;101412.75;4955311;29;20106;-81
2023/06/29 08:06:11;;;;;;;23.92;16.92;;;;;;;26.01;59.02;101425.69;4955456;29;20110;-81
2023/06/29 08:08:36;;;;;;;22.15;17.92;;;;;;;25.96;59.37;101420.16;4955376;29;20051;-80
2023/06/29 08:11:02;;;;;;;25.33;17.83;;;;;;;25.71;59.12;101397.59;4955282;29;20051;-83
2023/06/29 08:13:27;;;;;;;24.25;17.30;;;;;;;25.63;59.30;101424.09;4955177;29;20031;-77
2023/06/29 08:15:53;;;;;;;22.83;17.20;;;;;;;25.21;58.11;101382.38;4955008;29;20042;-81
2023/06/29 08:18:18;;;;;;;22.88;17.40;;;;;;;25.15;59.57;101413.78;4936545;29;20027;-78
2023/06/29 08:20:46;;;;;;;20.88;16.80;;;;;;;24.93;58.31;101405.84;4955671;29;20031;-80
2023/06/29 08:23:12;;;;;;;23.40;18.55;;;;;;;24.82;61.25;101407.09;4937121;29;20031;-79
2023/06/29 08:25:37;;;;;;;22.92;17.33;;;;;;;24.83;60.27;101421.94;4954839;29;20027;-80
2023/06/29 08:28:02;;;;;;;22.20;17.27;;;;;;;24.76;60.97;101407.78;4954837;29;20028;-80
2023/06/29 08:30:28;;;;;;;22.48;17.55;;;;;;;24.67;61.25;101396.44;4937855;29;20114;-79
2023/06/29 08:32:54;;;;;;;22.92;18.02;;;;;;;24.92;61.89;101422.69;4937625;29;20038;-82
2023/06/29 08:35:19;;;;;;;21.40;16.65;;;;;;;24.86;62.95;101406.53;4954682;29;20435;-80
2023/06/29 08:37:44;;;;;;;23.58;18.00;;;;;;;24.96;62.97;101424.81;4954539;29;20058;-82
2023/06/29 08:40:11;;;;;;;22.50;16.98;;;;;;;24.93;62.63;101419.88;4937061;29;20079;-83
2023/06/29 08:42:39;;;;;;;22.58;18.00;;;;;;;24.76;64.83;101419.16;4937139;29;20163;-82
2023/06/29 08:45:06;;;;;;;23.50;18.02;;;;;;;24.60;65.84;101422.75;4954791;29;20059;-83
2023/06/29 08:47:34;;;;;;;24.67;18.85;;;;;;;24.44;62.78;101392.97;4954650;29;20463;-79
2023/06/29 08:50:00;;;;;;;23.30;18.55;;;;;;;24.74;61.59;101420.34;4954770;29;20037;-83
2023/06/29 08:52:27;;;;;;;22.15;17.75;;;;;;;24.72;62.24;101396.75;4937222;29;20041;-82
2023/06/29 08:54:53;;;;;;;24.40;18.02;;;;;;;25.09;61.45;101416.34;4954395;29;20031;-79
2023/06/29 08:57:21;;;;;;;23.05;17.83;;;;;;;25.18;61.37;101407.34;4954452;29;20035;-82
2023/06/29 08:59:49;;;;;;;22.90;17.80;;;;;;;25.30;60.26;101411.19;4954420;29;20023;-83
2023/06/29 09:02:15;;;;;;;22.00;17.25;;;;;;;25.39;60.54;101418.06;4954632;28;20027;-80
2023/06/29 09:04:40;;;;;;;23.40;18.27;;;;;;;25.25;60.68;101418.81;4954204;29;20494;-84
2023/06/29 09:07:06;;;;;;;24.55;17.77;;;;;;;25.22;61.90;101405.97;4952942;29;20079;-83
2023/06/29 09:09:32;;;;;;;20.98;15.95;;;;;;;25.51;63.46;101412.31;4954822;29;20050;-82
2023/06/29 09:12:00;;;;;;;23.77;18.30;;;;;;;25.71;59.68;101410.81;4954646;29;20374;-83
2023/06/29 09:14:26;;;;;;;23.27;17.60;;;;;;;25.88;60.34;101392.97;4954207;29;20034;-82
2023/06/29 09:16:57;;;;;;;23.63;18.58;;;;;;;25.98;56.38;101412.84;4954411;29;20098;-81
2023/06/29 09:19:24;;;;;;;24.67;18.90;;;;;;;25.98;57.90;101409.38;4954342;29;20023;-82
2023/06/29 09:21:50;;;;;;;25.05;18.92;;;;;;;26.07;57.76;101405.63;4954268;29;20114;-80
2023/06/29 09:24:16;;;;;;;25.17;19.40;;;;;;;25.82;55.19;101378.63;4954189;29;20063;-82
2023/06/29 09:26:42;;;;;;;22.23;18.05;;;;;;;25.96;56.78;101404.28;4953820;29;20047;-81
2023/06/29 09:29:07;;;;;;;23.27;18.48;;;;;;;25.98;58.71;101409.38;4954152;29;20035;-79
2023/06/29 09:31:32;;;;;;;23.95;18.00;;;;;;;26.05;55.79;101404.16;4954214;29;20032;-81
2023/06/29 09:34:18;;;;;;;22.52;17.63;;;;;;;26.12;55.44;101399.78;4936754;29;20493;-81
2023/06/29 09:36:44;;;;;;;26.45;18.85;;;;;;;25.93;55.91;101387.91;4936920;29;20031;-79
2023/06/29 09:39:10;;;;;;;23.08;16.77;;;;;;;25.71;56.63;101361.38;4953802;29;20436;-80
2023/06/29 09:41:49;;;;;;;24.73;18.50;;;;;;;26.05;56.84;101406.78;4953867;29;20540;-81
2023/06/29 09:44:21;;;;;;;22.95;18.52;;;;;;;25.77;55.39;101381.00;4954095;29;20023;-81
2023/06/29 09:46:47;;;;;;;24.27;19.08;;;;;;;25.72;56.80;101405.34;4954142;29;20453;-82
2023/06/29 09:49:14;;;;;;;25.08;19.52;;;;;;;25.59;57.49;101381.34;4936745;29;20098;-78
2023/06/29 09:51:39;;;;;;;22.88;17.50;;;;;;;25.60;57.02;101406.78;4954093;29;20027;-80
2023/06/29 09:54:05;;;;;;;26.08;18.92;;;;;;;25.60;57.94;101405.97;4953366;29;20123;-81
2023/06/29 09:56:34;;;;;;;25.35;19.85;;;;;;;25.45;57.35;101401.47;4953083;29;20027;-78
2023/06/29 09:59:02;;;;;;;23.30;18.33;;;;;;;25.67;56.83;101414.81;4951307;29;20035;-81
2023/06/29 10:01:30;;;;;;;25.60;19.83;;;;;;;25.61;55.29;101403.13;4953897;29;20023;-82
2023/06/29 10:03:57;;;;;;;25.90;20.27;;;;;;;25.71;55.45;101410.81;4953960;29;20086;-81
2023/06/29 10:06:38;;;;;;;24.70;19.15;;;;;;;25.84;56.84;101407.53;4953885;29;20118;-80
2023/06/29 10:09:04;;;;;;;24.35;19.45;;;;;;;25.73;55.18;101408.81;4953563;29;20509;-81
2023/06/29 10:11:34;;;;;;;25.00;18.48;;;;;;;25.64;54.72;101404.59;4953591;29;20107;-82
2023/06/29 10:14:03;;;;;;;24.63;18.70;;;;;;;25.70;53.87;101407.38;4953927;28;20126;-80
2023/06/29 10:16:33;;;;;;;27.67;20.67;;;;;;;25.63;55.51;101395.81;4956700;29;20024;-80
2023/06/29 10:19:13;;;;;;;26.27;20.65;;;;;;;25.88;54.92;101403.53;4957235;29;20034;-81
2023/06/29 10:21:39;;;;;;;26.73;19.98;;;;;;;25.88;53.99;101388.50;4956945;29;20039;-81
2023/06/29 10:24:06;;;;;;;25.55;20.77;;;;;;;25.96;53.92;101406.09;4957059;29;20035;-81
2023/06/29 10:26:32;;;;;;;23.88;19.02;;;;;;;25.98;54.23;101404.91;4956727;29;20019;-80
2023/06/29 10:28:57;;;;;;;25.58;19.65;;;;;;;25.85;54.78;101380.88;4957225;29;20031;-82
2023/06/29 10:31:33;;;;;;;24.77;19.15;;;;;;;26.09;55.61;101394.84;4957154;29;20403;-81
2023/06/29 10:33:59;;;;;;;26.05;19.40;;;;;;;26.13;54.06;101412.00;4957001;29;20031;-82
2023/06/29 10:36:25;;;;;;;25.15;19.17;;;;;;;26.05;54.42;101404.16;4955164;29;20396;-83
2023/06/29 10:38:51;;;;;;;25.63;19.45;;;;;;;26.08;53.81;101403.81;4956896;29;20055;-80
2023/06/29 10:41:26;;;;;;;26.42;19.70;;;;;;;25.96;54.07;101403.47;4957629;29;20031;-84
2023/06/29 10:43:58;;;;;;;26.77;19.90;;;;;;;25.80;55.29;101401.81;4956883;29;20031;-82
2023/06/29 10:46:46;;;;;;;27.52;20.23;;;;;;;25.79;56.05;101402.00;4939957;29;20034;-84
2023/06/29 10:49:25;;;;;;;27.17;20.27;;;;;;;25.57;56.74;101404.50;4956518;29;20051;-81
2023/06/29 10:52:00;;;;;;;27.65;20.58;;;;;;;25.53;55.71;101402.38;4956920;29;20024;-83
2023/06/29 10:54:27;;;;;;;25.70;21.05;;;;;;;25.40;54.18;101392.44;4956417;29;20102;-84
2023/06/29 10:56:57;;;;;;;26.08;20.33;;;;;;;25.50;55.05;101410.69;4956430;29;20122;-82
2023/06/29 10:59:23;;;;;;;25.95;20.10;;;;;;;25.66;54.69;101399.94;4956230;29;20110;-83
2023/06/29 11:01:50;;;;;;;28.30;20.85;;;;;;;25.69;53.96;101395.09;4939342;29;20062;-81